Aviation Digital Data Service (ADDS)

Output produced by METARs form (0313 UTC 04 December 2020)
found at http://www.aviationweather.gov/metar/data/
 
METAR text: CYLW 040300Z AUTO 15005KT 120V240 9SM BKN070 OVC096 01/M00 A3040 RMK SLP322
Conditions at: CYLW (KELOWNA APT , BC, CA) observed 0300 UTC 04 December 2020
Temperature: 1.0°C (34°F)
Dewpoint: 0.0°C (32°F) [RH = 93%]
Pressure (altimeter): 30.40 inches Hg (1029.5 mb)
[Sea-level pressure: 1032.2 mb]
Winds: from the SSE (150 degrees) at 6 MPH (5 knots; 2.6 m/s)
Visibility: 9 miles (14 km)
Ceiling: 7000 feet AGL
Clouds: broken clouds at 7000 feet AGL
overcast cloud deck at 9600 feet AGL
Weather: no significant weather observed at this time

METAR text: CYLW 040226Z AUTO 13004KT 9SM FEW075 OVC093 02/M00 A3042 RMK SLP325
Conditions at: CYLW (KELOWNA APT , BC, CA) observed 0226 UTC 04 December 2020
Temperature: 2.0°C (36°F)
Dewpoint: 0.0°C (32°F) [RH = 87%]
Pressure (altimeter): 30.42 inches Hg (1030.2 mb)
[Sea-level pressure: 1032.5 mb]
Winds: from the SE (130 degrees) at 5 MPH (4 knots; 2.1 m/s)
Visibility: 9 miles (14 km)
Ceiling: 9300 feet AGL
Clouds: few clouds at 7500 feet AGL
overcast cloud deck at 9300 feet AGL
Weather: no significant weather observed at this time

METAR text: CYLW 040200Z AUTO 07004KT 340V090 9SM -RA OVC070 01/M01 A3040 RMK SLP323
Conditions at: CYLW (KELOWNA APT , BC, CA) observed 0200 UTC 04 December 2020
Temperature: 1.0°C (34°F)
Dewpoint: -1.0°C (30°F) [RH = 86%]
Pressure (altimeter): 30.40 inches Hg (1029.5 mb)
[Sea-level pressure: 1032.3 mb]
Winds: from the ENE (70 degrees) at 5 MPH (4 knots; 2.1 m/s)
Visibility: 9 miles (14 km)
Ceiling: 7000 feet AGL
Clouds: overcast cloud deck at 7000 feet AGL
Weather: -RA  (light rain)

METAR text: CYLW 040140Z AUTO 00000KT 9SM -RA OVC075 02/M02 A3040 RMK SLP323
Conditions at: CYLW (KELOWNA APT , BC, CA) observed 0140 UTC 04 December 2020
Temperature: 2.0°C (36°F)
Dewpoint: -2.0°C (28°F) [RH = 75%]
Pressure (altimeter): 30.40 inches Hg (1029.5 mb)
[Sea-level pressure: 1032.3 mb]
Winds: calm
Visibility: 9 miles (14 km)
Ceiling: 7500 feet AGL
Clouds: overcast cloud deck at 7500 feet AGL
Weather: -RA  (light rain)

METAR text: CYLW 040100Z AUTO 19003KT 110V200 9SM BKN130 02/M02 A3040 RMK SLP322
Conditions at: CYLW (KELOWNA APT , BC, CA) observed 0100 UTC 04 December 2020
Temperature: 2.0°C (36°F)
Dewpoint: -2.0°C (28°F) [RH = 75%]
Pressure (altimeter): 30.40 inches Hg (1029.5 mb)
[Sea-level pressure: 1032.2 mb]
Winds: from the S (190 degrees) at 3 MPH (3 knots; 1.5 m/s)
Visibility: 9 miles (14 km)
Ceiling: 13000 feet AGL
Clouds: broken clouds at 13000 feet AGL
Weather: no significant weather observed at this time

Forecast for: CYLW (KELOWNA APT , BC, CA)
Text: TAF CYLW 040038Z 0401/0413 VRB03KT P6SM FEW080 SCT200 RMK FCST BASED ON AUTO OBS. NXT FCST BY 040700Z
Forecast period: 0100 to 1300 UTC 04 December 2020
Forecast type: FROM: standard forecast or significant change
Winds: variable direction winds at 3 MPH (3 knots; 1.5 m/s)
Visibility: 6 or more miles (10+ km)
Ceiling: at least 12,000 feet AGL
Clouds: few clouds at 8000 feet AGL
scattered clouds at 20000 feet AGL
Weather: no significant weather forecast for this period